This is the latest recevied weather packets stored in our database for station/object DO7CRZ-12. If no packets are shown the sender has not sent any weather packets the latest 10 day(s).
| Time | Temp. | Humidity | Pressure | Rain* | Wind** | Luminosity | Snow |
|---|---|---|---|---|---|---|---|
| 1777993644 | 25.56° C | 44% | 1006.3 hPa | 0 mm | - | 77 W/m² | - |
| 1777993041 | 26.11° C | 43% | 1006.2 hPa | 0 mm | - | 117 W/m² | - |
| 1777992439 | 26.11° C | 42% | 1006.3 hPa | 0 mm | - | 122 W/m² | - |
| 1777991836 | 26.67° C | 41% | 1006.3 hPa | 0 mm | - | 113 W/m² | - |
| 1777991248 | 27.78° C | 39% | 1006.4 hPa | 0 mm | - | 170 W/m² | - |
| 1777990645 | 27.78° C | 39% | 1006.4 hPa | 0 mm | - | 188 W/m² | - |
| 1777990042 | 28.89° C | 39% | 1006.6 hPa | 0 mm | - | 252 W/m² | - |
| 1777989439 | 28.33° C | 40% | 1006.6 hPa | 0 mm | - | 299 W/m² | - |
| 1777988837 | 27.78° C | 39% | 1006.8 hPa | 0 mm | - | 311 W/m² | - |
| 1777988249 | 27.78° C | 38% | 1006.8 hPa | 0 mm | - | 235 W/m² | - |
| 1777987646 | 27.78° C | 38% | 1006.7 hPa | 0 mm | - | 338 W/m² | - |
| 1777985837 | 28.33° C | 36% | 1006.9 hPa | 0 mm | - | 234 W/m² | - |
| 1777985250 | 28.89° C | 37% | 1006.9 hPa | 0 mm | - | 373 W/m² | - |
| 1777984646 | 28.89° C | 37% | 1006.9 hPa | 0 mm | - | 320 W/m² | - |
| 1777984044 | 27.78° C | 38% | 1006.9 hPa | 0 mm | - | 413 W/m² | - |
| 1777983441 | 26.67° C | 41% | 1007 hPa | 0 mm | - | 242 W/m² | - |
| 1777982838 | 26.67° C | 41% | 1007 hPa | 0 mm | - | 201 W/m² | - |
| 1777982236 | 26.67° C | 41% | 1007.1 hPa | 0 mm | - | 198 W/m² | - |
| 1777981648 | 27.22° C | 37% | 1007.1 hPa | 0 mm | - | 185 W/m² | - |
| 1777981045 | 27.78° C | 35% | 1007.1 hPa | 0 mm | - | 174 W/m² | - |
| 1777980442 | 29.44° C | 35% | 1007.2 hPa | 0 mm | - | 231 W/m² | - |
| 1777979839 | 30° C | 33% | 1007.1 hPa | 0 mm | - | 531 W/m² | - |
| 1777978649 | 30.56° C | 35% | 1007.4 hPa | 0 mm | - | 616 W/m² | - |
| 1777978046 | 26.67° C | 38% | 1007.5 hPa | 0 mm | - | 568 W/m² | - |
| 1777977445 | 27.22° C | 34% | 1007.7 hPa | 0 mm | - | 170 W/m² | - |
* Rain latest hour (hover to see other rain measurements)
** Current wind speed in m/s (hover to see current wind gust speed)